»·PEaware :: N572JP KSBP-KSMX

N572JP :: KSBP-KSMX

FLIGHT INFORMATION

Flight Status: Arrived
Operator: Privately registered:
United States
More flights under this callsign
Pilot: Matthew D. (16794)
Aircraft: BEECH AIRCRAFT BARON
(BE58)
More flights by this aircraft type
Origin: KSBP San Luis Co Regl
United States
Destination: KSMX Santa Maria Pub/Capt Hancock
United States
More flights between these airports :: More routes between these airports
Route: +
File this flight plan on PilotEdge
Remarks:
Altitude:
(Current/Filed)
7,000ft
Speed:
(Current/Filed)
150kts
Departed: 03-Oct-17 08:47 AM
Arrived: 03-Oct-17 09:19 AM
Distance/Time
Traveled:
22nm/0:32
Distance/Time
To Go:
Arrived

Flight Plot

Page will automatically refresh every two minutes.


Map Options




Map Legend


Flown Route
Filed Route
Departure Airport
Arrival Airport
Navaid (VOR, NDB)
Fix

Horizontal Profiles

Position Reports

Time Latitude Longitude Heading Altitude Ground
Speed
03-Oct-17 08:35 35.237909 -120.638641 270 212ft 0kts
03-Oct-17 08:36 35.237909 -120.638642 270 212ft 0kts
03-Oct-17 08:37 35.237909 -120.638642 270 212ft 0kts
03-Oct-17 08:38 35.237909 -120.638642 270 212ft 0kts
03-Oct-17 08:39 35.237909 -120.638642 270 212ft 0kts
03-Oct-17 08:40 35.237909 -120.638642 270 212ft 0kts
03-Oct-17 08:41 35.237909 -120.638642 270 212ft 0kts
03-Oct-17 08:42 35.237900 -120.638716 247 212ft 3kts
03-Oct-17 08:43 35.237288 -120.638806 157 212ft 10kts
03-Oct-17 08:44 35.236405 -120.637447 125 212ft 14kts
03-Oct-17 08:45 35.235371 -120.635636 123 212ft 17kts
03-Oct-17 08:46 35.234226 -120.633635 124 212ft 18kts
03-Oct-17 08:47 35.233232 -120.632403 198 212ft 0kts
03-Oct-17 08:48 35.233231 -120.632403 198 212ft 0kts
03-Oct-17 08:49 35.233229 -120.632404 198 212ft 0kts
03-Oct-17 08:50 35.232814 -120.633003 290 212ft 11kts
03-Oct-17 08:51 35.235789 -120.638409 303 212ft 102kts
03-Oct-17 08:52 35.242694 -120.651091 300 631ft 130kts
03-Oct-17 08:53 35.246680 -120.667138 247 1112ft 141kts
03-Oct-17 08:54 35.234397 -120.675015 166 1732ft 139kts
03-Oct-17 08:55 35.219725 -120.664732 142 2111ft 153kts
03-Oct-17 08:56 35.204378 -120.649888 140 2551ft 155kts
03-Oct-17 08:57 35.190089 -120.634179 134 2898ft 161kts
03-Oct-17 08:58 35.177344 -120.618559 146 3314ft 159kts
03-Oct-17 08:59 35.163839 -120.611746 156 3653ft 155kts
03-Oct-17 09:00 35.150495 -120.604768 158 3977ft 152kts
03-Oct-17 09:01 35.133433 -120.597681 159 3970ft 171kts
03-Oct-17 09:02 35.115745 -120.590368 159 3962ft 179kts
03-Oct-17 09:03 35.097032 -120.582557 159 3959ft 182kts
03-Oct-17 09:04 35.078384 -120.574716 158 3957ft 184kts
03-Oct-17 09:05 35.064875 -120.569008 158 3953ft 186kts
03-Oct-17 09:06 35.047533 -120.561622 159 3959ft 191kts
03-Oct-17 09:07 35.028996 -120.553709 159 3959ft 191kts
03-Oct-17 09:08 35.011063 -120.546116 159 3950ft 179kts
03-Oct-17 09:09 34.993855 -120.538785 159 3953ft 174kts
03-Oct-17 09:10 34.976138 -120.531243 160 3955ft 171kts
03-Oct-17 09:11 34.959738 -120.524327 160 3940ft 151kts
03-Oct-17 09:12 34.946518 -120.518685 160 3936ft 134kts
03-Oct-17 09:13 34.932572 -120.512548 155 3292ft 124kts
03-Oct-17 09:14 34.920231 -120.499192 107 2245ft 126kts
03-Oct-17 09:15 34.919730 -120.479996 84 1609ft 111kts
03-Oct-17 09:16 34.920181 -120.461541 98 1464ft 125kts
03-Oct-17 09:17 34.915347 -120.444240 115 1172ft 110kts
03-Oct-17 09:18 34.909359 -120.432253 126 867ft 91kts
03-Oct-17 09:19 34.904101 -120.424327 134 679ft 83kts
03-Oct-17 09:20 34.895705 -120.427740 223 618ft 80kts
03-Oct-17 09:21 34.889132 -120.437235 262 473ft 76kts
03-Oct-17 09:22 34.894418 -120.447841 315 264ft 74kts
03-Oct-17 09:23 34.897810 -120.450033 0 262ft 20kts
03-Oct-17 09:24 34.898941 -120.450663 315 262ft 15kts
03-Oct-17 09:25 34.900361 -120.450399 46 262ft 17kts
03-Oct-17 09:26 34.900860 -120.450153 119 262ft 0kts
03-Oct-17 09:27 34.900860 -120.450153 119 262ft 0kts
03-Oct-17 09:28 34.900860 -120.450153 119 262ft 0kts
03-Oct-17 09:29 34.900860 -120.450153 119 262ft 0kts
03-Oct-17 09:30 34.900860 -120.450153 119 262ft 0kts
03-Oct-17 09:31 34.900860 -120.450153 119 262ft 0kts
03-Oct-17 09:32 34.900860 -120.450153 119 262ft 0kts
03-Oct-17 09:33 34.900860 -120.450153 119 262ft 0kts
03-Oct-17 09:34 34.900860 -120.450153 119 262ft 0kts
03-Oct-17 09:35 34.900860 -120.450153 119 262ft 0kts
03-Oct-17 09:36 34.900860 -120.450153 119 262ft 0kts
03-Oct-17 09:37 34.900860 -120.450153 119 262ft 0kts
03-Oct-17 09:38 34.900860 -120.450153 119 262ft 0kts

Navigation Log

Ident Type
1. KSBP Airport
2. KSMX Airport